Terminal Aerodrome Forecast
Issued by NWS Twin Cities, MN

Home | Current Version | Previous Version | Graphics & Text | Print | Product List | Glossary On
Versions: 1 2 3 4 5 6 7 8 9 10 11 12 13 14 15 16 17 18 19 20 21 22 23 24 25 26 27 28 29 30 31 32 33 34 35
000
FTUS43 KMPX 121531 AAA
TAFMSP
TAF AMD
KMSP 121531Z 1216/1318 30008KT P6SM SCT080
     FM121800 21005KT P6SM OVC030
     FM122300 15006KT P6SM OVC025
     FM130300 15004KT P6SM BKN060
     FM131200 28011G18KT P6SM VCSH OVC012
     FM131500 32016G29KT P6SM VCSH OVC008 PROB30 1315/1318 -FZDZ=

USA.gov is the U.S. government's official web portal to all federal, state and local government web resources and services.